sensor_id;sensor_type;location;lat;lon;timestamp;temperature;humidity
28546;DHT22;15749;49.606;8.738;2023-09-08T00:01:45;24.90;99.90
28546;DHT22;15749;49.606;8.738;2023-09-08T00:04:16;24.90;99.90
28546;DHT22;15749;49.606;8.738;2023-09-08T00:06:47;24.90;99.90
28546;DHT22;15749;49.606;8.738;2023-09-08T00:09:16;24.90;99.90
28546;DHT22;15749;49.606;8.738;2023-09-08T00:11:45;24.90;99.90
28546;DHT22;15749;49.606;8.738;2023-09-08T00:14:17;24.90;99.90
28546;DHT22;15749;49.606;8.738;2023-09-08T00:16:46;24.90;99.90
28546;DHT22;15749;49.606;8.738;2023-09-08T00:19:16;24.80;99.90
28546;DHT22;15749;49.606;8.738;2023-09-08T00:21:45;24.80;99.90
28546;DHT22;15749;49.606;8.738;2023-09-08T00:24:14;24.80;99.90
28546;DHT22;15749;49.606;8.738;2023-09-08T00:26:44;24.80;99.90
28546;DHT22;15749;49.606;8.738;2023-09-08T00:29:32;24.70;99.90
28546;DHT22;15749;49.606;8.738;2023-09-08T00:32:02;24.70;99.90
28546;DHT22;15749;49.606;8.738;2023-09-08T00:34:31;24.70;99.90
28546;DHT22;15749;49.606;8.738;2023-09-08T00:37:00;24.70;99.90
28546;DHT22;15749;49.606;8.738;2023-09-08T00:39:35;24.70;99.90
28546;DHT22;15749;49.606;8.738;2023-09-08T00:42:07;24.70;99.90
28546;DHT22;15749;49.606;8.738;2023-09-08T00:44:38;24.60;99.90
28546;DHT22;15749;49.606;8.738;2023-09-08T00:47:07;24.60;99.90
28546;DHT22;15749;49.606;8.738;2023-09-08T00:49:36;24.60;99.90
28546;DHT22;15749;49.606;8.738;2023-09-08T00:52:06;24.60;99.90
28546;DHT22;15749;49.606;8.738;2023-09-08T00:54:35;24.60;99.90
28546;DHT22;15749;49.606;8.738;2023-09-08T00:57:04;24.50;99.90
28546;DHT22;15749;49.606;8.738;2023-09-08T00:59:35;24.50;99.90
28546;DHT22;15749;49.606;8.738;2023-09-08T01:02:05;24.50;99.90
28546;DHT22;15749;49.606;8.738;2023-09-08T01:04:35;24.50;99.90
28546;DHT22;15749;49.606;8.738;2023-09-08T01:07:09;24.40;99.90
28546;DHT22;15749;49.606;8.738;2023-09-08T01:09:40;24.50;99.90
28546;DHT22;15749;49.606;8.738;2023-09-08T01:12:11;24.40;99.90
28546;DHT22;15749;49.606;8.738;2023-09-08T01:14:40;24.40;99.90
28546;DHT22;15749;49.606;8.738;2023-09-08T01:17:11;24.40;99.90
28546;DHT22;15749;49.606;8.738;2023-09-08T01:19:41;24.40;99.90
28546;DHT22;15749;49.606;8.738;2023-09-08T01:22:27;24.40;99.90
28546;DHT22;15749;49.606;8.738;2023-09-08T01:25:18;24.30;99.90
28546;DHT22;15749;49.606;8.738;2023-09-08T01:27:50;24.30;99.90
28546;DHT22;15749;49.606;8.738;2023-09-08T01:30:21;24.30;99.90
28546;DHT22;15749;49.606;8.738;2023-09-08T01:32:52;24.30;99.90
28546;DHT22;15749;49.606;8.738;2023-09-08T01:35:22;24.30;99.90
28546;DHT22;15749;49.606;8.738;2023-09-08T01:37:52;24.30;99.90
28546;DHT22;15749;49.606;8.738;2023-09-08T01:40:23;24.20;99.90
28546;DHT22;15749;49.606;8.738;2023-09-08T01:42:52;24.20;99.90
28546;DHT22;15749;49.606;8.738;2023-09-08T01:45:23;24.20;99.90
28546;DHT22;15749;49.606;8.738;2023-09-08T01:47:52;24.20;99.90
28546;DHT22;15749;49.606;8.738;2023-09-08T01:50:21;24.20;99.90
28546;DHT22;15749;49.606;8.738;2023-09-08T01:52:52;24.20;99.90
28546;DHT22;15749;49.606;8.738;2023-09-08T01:55:24;24.20;99.90
28546;DHT22;15749;49.606;8.738;2023-09-08T01:57:53;24.10;99.90
28546;DHT22;15749;49.606;8.738;2023-09-08T02:00:22;24.10;99.90
28546;DHT22;15749;49.606;8.738;2023-09-08T02:02:52;24.10;99.90
28546;DHT22;15749;49.606;8.738;2023-09-08T02:05:21;24.10;99.90
28546;DHT22;15749;49.606;8.738;2023-09-08T02:07:50;24.10;99.90
28546;DHT22;15749;49.606;8.738;2023-09-08T02:10:19;24.00;99.90
28546;DHT22;15749;49.606;8.738;2023-09-08T02:12:50;24.00;99.90
28546;DHT22;15749;49.606;8.738;2023-09-08T02:15:19;24.00;99.90
28546;DHT22;15749;49.606;8.738;2023-09-08T02:17:52;24.00;99.90
28546;DHT22;15749;49.606;8.738;2023-09-08T02:20:22;24.00;99.90
28546;DHT22;15749;49.606;8.738;2023-09-08T02:22:54;24.00;99.90
28546;DHT22;15749;49.606;8.738;2023-09-08T02:25:24;24.00;99.90
28546;DHT22;15749;49.606;8.738;2023-09-08T02:27:54;24.00;99.90
28546;DHT22;15749;49.606;8.738;2023-09-08T02:30:24;23.90;99.90
28546;DHT22;15749;49.606;8.738;2023-09-08T02:32:54;23.90;99.90
28546;DHT22;15749;49.606;8.738;2023-09-08T02:35:24;23.90;99.90
28546;DHT22;15749;49.606;8.738;2023-09-08T02:37:55;23.90;99.90
28546;DHT22;15749;49.606;8.738;2023-09-08T02:40:27;23.90;99.90
28546;DHT22;15749;49.606;8.738;2023-09-08T02:42:57;23.90;99.90
28546;DHT22;15749;49.606;8.738;2023-09-08T02:45:27;23.80;99.90
28546;DHT22;15749;49.606;8.738;2023-09-08T02:47:56;23.80;99.90
28546;DHT22;15749;49.606;8.738;2023-09-08T02:50:25;23.80;99.90
28546;DHT22;15749;49.606;8.738;2023-09-08T02:52:54;23.80;99.90
28546;DHT22;15749;49.606;8.738;2023-09-08T02:55:23;23.80;99.90
28546;DHT22;15749;49.606;8.738;2023-09-08T02:57:53;23.70;99.90
28546;DHT22;15749;49.606;8.738;2023-09-08T03:00:24;23.70;99.90
28546;DHT22;15749;49.606;8.738;2023-09-08T03:02:55;23.70;99.90
28546;DHT22;15749;49.606;8.738;2023-09-08T03:05:24;23.70;99.90
28546;DHT22;15749;49.606;8.738;2023-09-08T03:07:53;23.70;99.90
28546;DHT22;15749;49.606;8.738;2023-09-08T03:10:22;23.70;99.90
28546;DHT22;15749;49.606;8.738;2023-09-08T03:12:51;23.70;99.90
28546;DHT22;15749;49.606;8.738;2023-09-08T03:15:20;23.60;99.90
28546;DHT22;15749;49.606;8.738;2023-09-08T03:17:51;23.60;99.90
28546;DHT22;15749;49.606;8.738;2023-09-08T03:20:20;23.60;99.90
28546;DHT22;15749;49.606;8.738;2023-09-08T03:22:50;23.60;99.90
28546;DHT22;15749;49.606;8.738;2023-09-08T03:25:19;23.60;99.90
28546;DHT22;15749;49.606;8.738;2023-09-08T03:27:48;23.50;99.90
28546;DHT22;15749;49.606;8.738;2023-09-08T03:30:18;23.50;99.90
28546;DHT22;15749;49.606;8.738;2023-09-08T03:32:47;23.50;99.90
28546;DHT22;15749;49.606;8.738;2023-09-08T03:35:18;23.50;99.90
28546;DHT22;15749;49.606;8.738;2023-09-08T03:37:47;23.50;99.90
28546;DHT22;15749;49.606;8.738;2023-09-08T03:40:17;23.50;99.90
28546;DHT22;15749;49.606;8.738;2023-09-08T03:42:46;23.50;99.90
28546;DHT22;15749;49.606;8.738;2023-09-08T03:45:15;23.50;99.90
28546;DHT22;15749;49.606;8.738;2023-09-08T03:47:44;23.50;99.90
28546;DHT22;15749;49.606;8.738;2023-09-08T03:50:13;23.40;99.90
28546;DHT22;15749;49.606;8.738;2023-09-08T03:52:44;23.40;99.90
28546;DHT22;15749;49.606;8.738;2023-09-08T03:55:14;23.40;99.90
28546;DHT22;15749;49.606;8.738;2023-09-08T03:57:43;23.40;99.90
28546;DHT22;15749;49.606;8.738;2023-09-08T04:00:13;23.40;99.90
28546;DHT22;15749;49.606;8.738;2023-09-08T04:02:47;23.40;99.90
28546;DHT22;15749;49.606;8.738;2023-09-08T04:05:16;23.40;99.90
28546;DHT22;15749;49.606;8.738;2023-09-08T04:07:47;23.40;99.90
28546;DHT22;15749;49.606;8.738;2023-09-08T04:10:18;23.40;99.90
28546;DHT22;15749;49.606;8.738;2023-09-08T04:12:47;23.30;99.90
28546;DHT22;15749;49.606;8.738;2023-09-08T04:15:16;23.30;99.90
28546;DHT22;15749;49.606;8.738;2023-09-08T04:17:45;23.30;99.90
28546;DHT22;15749;49.606;8.738;2023-09-08T04:20:15;23.30;99.90
28546;DHT22;15749;49.606;8.738;2023-09-08T04:22:44;23.30;99.90
28546;DHT22;15749;49.606;8.738;2023-09-08T04:25:14;23.30;99.90
28546;DHT22;15749;49.606;8.738;2023-09-08T04:27:43;23.30;99.90
28546;DHT22;15749;49.606;8.738;2023-09-08T04:30:13;23.20;99.90
28546;DHT22;15749;49.606;8.738;2023-09-08T04:32:43;23.20;99.90
28546;DHT22;15749;49.606;8.738;2023-09-08T04:35:12;23.20;99.90
28546;DHT22;15749;49.606;8.738;2023-09-08T04:37:42;23.20;99.90
28546;DHT22;15749;49.606;8.738;2023-09-08T04:40:11;23.20;99.90
28546;DHT22;15749;49.606;8.738;2023-09-08T04:42:42;23.20;99.90
28546;DHT22;15749;49.606;8.738;2023-09-08T04:45:11;23.20;99.90
28546;DHT22;15749;49.606;8.738;2023-09-08T04:47:41;23.20;99.90
28546;DHT22;15749;49.606;8.738;2023-09-08T04:50:11;23.20;99.90
28546;DHT22;15749;49.606;8.738;2023-09-08T04:52:40;23.20;99.90
28546;DHT22;15749;49.606;8.738;2023-09-08T04:55:11;23.10;99.90
28546;DHT22;15749;49.606;8.738;2023-09-08T04:57:41;23.10;99.90
28546;DHT22;15749;49.606;8.738;2023-09-08T05:00:12;23.10;99.90
28546;DHT22;15749;49.606;8.738;2023-09-08T05:02:41;23.10;99.90
28546;DHT22;15749;49.606;8.738;2023-09-08T05:05:10;23.10;99.90
28546;DHT22;15749;49.606;8.738;2023-09-08T05:07:39;23.10;99.90
28546;DHT22;15749;49.606;8.738;2023-09-08T05:10:09;23.10;99.90
28546;DHT22;15749;49.606;8.738;2023-09-08T05:12:39;23.10;99.90
28546;DHT22;15749;49.606;8.738;2023-09-08T05:15:10;23.00;99.90
28546;DHT22;15749;49.606;8.738;2023-09-08T05:17:47;23.00;99.90
28546;DHT22;15749;49.606;8.738;2023-09-08T05:20:19;23.00;99.90
28546;DHT22;15749;49.606;8.738;2023-09-08T05:22:48;23.00;99.90
28546;DHT22;15749;49.606;8.738;2023-09-08T05:25:17;23.00;99.90
28546;DHT22;15749;49.606;8.738;2023-09-08T05:27:47;23.00;99.90
28546;DHT22;15749;49.606;8.738;2023-09-08T05:30:19;23.00;99.90
28546;DHT22;15749;49.606;8.738;2023-09-08T05:32:48;23.00;99.90
28546;DHT22;15749;49.606;8.738;2023-09-08T05:35:17;23.00;99.90
28546;DHT22;15749;49.606;8.738;2023-09-08T05:37:47;23.00;99.90
28546;DHT22;15749;49.606;8.738;2023-09-08T05:40:16;23.00;99.90
28546;DHT22;15749;49.606;8.738;2023-09-08T05:42:46;22.90;99.90
28546;DHT22;15749;49.606;8.738;2023-09-08T05:45:18;22.90;99.90
28546;DHT22;15749;49.606;8.738;2023-09-08T05:47:47;22.90;99.90
28546;DHT22;15749;49.606;8.738;2023-09-08T05:50:19;22.90;99.90
28546;DHT22;15749;49.606;8.738;2023-09-08T05:52:48;22.90;99.90
28546;DHT22;15749;49.606;8.738;2023-09-08T05:55:18;22.90;99.90
28546;DHT22;15749;49.606;8.738;2023-09-08T05:57:48;22.90;99.90
28546;DHT22;15749;49.606;8.738;2023-09-08T06:00:19;22.90;99.90
28546;DHT22;15749;49.606;8.738;2023-09-08T06:02:50;22.90;99.90
28546;DHT22;15749;49.606;8.738;2023-09-08T06:05:20;22.90;99.90
28546;DHT22;15749;49.606;8.738;2023-09-08T06:07:50;22.90;99.90
28546;DHT22;15749;49.606;8.738;2023-09-08T06:10:37;22.90;99.90
28546;DHT22;15749;49.606;8.738;2023-09-08T06:13:07;23.00;99.90
28546;DHT22;15749;49.606;8.738;2023-09-08T06:15:38;23.00;99.90
28546;DHT22;15749;49.606;8.738;2023-09-08T06:18:08;23.00;99.90
28546;DHT22;15749;49.606;8.738;2023-09-08T06:20:44;23.00;99.90
28546;DHT22;15749;49.606;8.738;2023-09-08T06:23:14;23.00;99.90
28546;DHT22;15749;49.606;8.738;2023-09-08T06:25:44;23.00;99.90
28546;DHT22;15749;49.606;8.738;2023-09-08T06:28:13;23.00;99.90
28546;DHT22;15749;49.606;8.738;2023-09-08T06:30:44;23.00;99.90
28546;DHT22;15749;49.606;8.738;2023-09-08T06:33:13;23.10;99.90
28546;DHT22;15749;49.606;8.738;2023-09-08T06:35:43;23.10;99.90
28546;DHT22;15749;49.606;8.738;2023-09-08T06:38:12;23.10;99.90
28546;DHT22;15749;49.606;8.738;2023-09-08T06:40:42;23.10;99.90
28546;DHT22;15749;49.606;8.738;2023-09-08T06:43:11;23.10;99.90
28546;DHT22;15749;49.606;8.738;2023-09-08T06:45:51;23.20;99.90
28546;DHT22;15749;49.606;8.738;2023-09-08T06:48:23;23.20;99.90
28546;DHT22;15749;49.606;8.738;2023-09-08T06:50:53;23.20;99.90
28546;DHT22;15749;49.606;8.738;2023-09-08T06:53:25;23.20;99.90
28546;DHT22;15749;49.606;8.738;2023-09-08T06:55:54;23.30;99.90
28546;DHT22;15749;49.606;8.738;2023-09-08T06:58:24;23.30;99.90
28546;DHT22;15749;49.606;8.738;2023-09-08T07:00:54;23.30;99.90
28546;DHT22;15749;49.606;8.738;2023-09-08T07:03:25;23.40;99.90
28546;DHT22;15749;49.606;8.738;2023-09-08T07:05:56;23.40;99.90
28546;DHT22;15749;49.606;8.738;2023-09-08T07:08:26;23.40;99.90
28546;DHT22;15749;49.606;8.738;2023-09-08T07:10:57;23.50;99.90
28546;DHT22;15749;49.606;8.738;2023-09-08T07:13:26;23.50;99.90
28546;DHT22;15749;49.606;8.738;2023-09-08T07:15:58;23.50;99.90
28546;DHT22;15749;49.606;8.738;2023-09-08T07:18:28;23.50;99.90
28546;DHT22;15749;49.606;8.738;2023-09-08T07:21:01;23.60;99.90
28546;DHT22;15749;49.606;8.738;2023-09-08T07:23:30;23.70;99.90
28546;DHT22;15749;49.606;8.738;2023-09-08T07:25:59;23.70;99.90
28546;DHT22;15749;49.606;8.738;2023-09-08T07:28:30;23.70;99.90
28546;DHT22;15749;49.606;8.738;2023-09-08T07:31:06;23.80;99.90
28546;DHT22;15749;49.606;8.738;2023-09-08T07:33:40;23.80;99.90
28546;DHT22;15749;49.606;8.738;2023-09-08T07:36:10;23.90;99.90
28546;DHT22;15749;49.606;8.738;2023-09-08T07:38:40;23.90;99.90
28546;DHT22;15749;49.606;8.738;2023-09-08T07:41:10;24.00;99.90
28546;DHT22;15749;49.606;8.738;2023-09-08T07:43:39;24.00;99.90
28546;DHT22;15749;49.606;8.738;2023-09-08T07:46:13;24.10;99.90
28546;DHT22;15749;49.606;8.738;2023-09-08T07:48:43;24.10;99.90
28546;DHT22;15749;49.606;8.738;2023-09-08T07:51:12;24.20;99.90
28546;DHT22;15749;49.606;8.738;2023-09-08T09:01:32;25.80;99.90
28546;DHT22;15749;49.606;8.738;2023-09-08T09:05:39;25.90;99.90
28546;DHT22;15749;49.606;8.738;2023-09-08T09:09:46;26.10;99.90
28546;DHT22;15749;49.606;8.738;2023-09-08T09:14:08;26.20;99.90
28546;DHT22;15749;49.606;8.738;2023-09-08T10:21:23;27.90;99.90
28546;DHT22;15749;49.606;8.738;2023-09-08T10:23:59;27.90;99.90
28546;DHT22;15749;49.606;8.738;2023-09-08T10:26:31;28.00;99.90
28546;DHT22;15749;49.606;8.738;2023-09-08T10:29:02;28.10;99.90
28546;DHT22;15749;49.606;8.738;2023-09-08T10:31:31;28.10;99.90
28546;DHT22;15749;49.606;8.738;2023-09-08T10:34:01;28.20;99.90
28546;DHT22;15749;49.606;8.738;2023-09-08T10:36:34;28.20;99.90
28546;DHT22;15749;49.606;8.738;2023-09-08T10:39:31;28.30;99.90
28546;DHT22;15749;49.606;8.738;2023-09-08T10:42:33;28.40;99.90
28546;DHT22;15749;49.606;8.738;2023-09-08T10:45:14;28.40;99.90
28546;DHT22;15749;49.606;8.738;2023-09-08T10:47:56;28.50;99.90
28546;DHT22;15749;49.606;8.738;2023-09-08T10:50:28;28.50;99.90
28546;DHT22;15749;49.606;8.738;2023-09-08T10:53:13;28.60;99.90
28546;DHT22;15749;49.606;8.738;2023-09-08T10:55:45;28.70;99.90
28546;DHT22;15749;49.606;8.738;2023-09-08T10:58:36;28.70;99.90
28546;DHT22;15749;49.606;8.738;2023-09-08T11:01:06;28.80;99.90
28546;DHT22;15749;49.606;8.738;2023-09-08T11:03:46;28.80;99.90
28546;DHT22;15749;49.606;8.738;2023-09-08T11:06:19;28.90;99.90
28546;DHT22;15749;49.606;8.738;2023-09-08T11:08:51;29.00;99.90
28546;DHT22;15749;49.606;8.738;2023-09-08T11:11:25;29.00;99.90
28546;DHT22;15749;49.606;8.738;2023-09-08T11:13:54;29.00;99.90
28546;DHT22;15749;49.606;8.738;2023-09-08T11:16:25;29.10;99.90
28546;DHT22;15749;49.606;8.738;2023-09-08T11:18:59;29.10;99.90
28546;DHT22;15749;49.606;8.738;2023-09-08T11:21:32;29.20;99.90
28546;DHT22;15749;49.606;8.738;2023-09-08T11:24:06;29.20;99.90
28546;DHT22;15749;49.606;8.738;2023-09-08T11:26:35;29.20;99.90
28546;DHT22;15749;49.606;8.738;2023-09-08T11:29:06;29.30;99.90
28546;DHT22;15749;49.606;8.738;2023-09-08T11:31:35;29.30;99.90
28546;DHT22;15749;49.606;8.738;2023-09-08T11:34:05;29.30;99.90
28546;DHT22;15749;49.606;8.738;2023-09-08T11:36:35;29.30;99.90
28546;DHT22;15749;49.606;8.738;2023-09-08T11:39:09;29.40;99.90
28546;DHT22;15749;49.606;8.738;2023-09-08T11:41:39;29.40;99.90
28546;DHT22;15749;49.606;8.738;2023-09-08T11:44:09;29.40;99.90
28546;DHT22;15749;49.606;8.738;2023-09-08T11:46:46;29.40;99.90
28546;DHT22;15749;49.606;8.738;2023-09-08T11:49:19;29.50;99.90
28546;DHT22;15749;49.606;8.738;2023-09-08T11:51:49;29.50;99.90
28546;DHT22;15749;49.606;8.738;2023-09-08T11:54:20;29.50;99.90
28546;DHT22;15749;49.606;8.738;2023-09-08T11:56:53;29.50;99.90
28546;DHT22;15749;49.606;8.738;2023-09-08T11:59:30;29.50;99.90
28546;DHT22;15749;49.606;8.738;2023-09-08T12:01:59;29.50;99.90
28546;DHT22;15749;49.606;8.738;2023-09-08T12:04:29;29.50;99.90
28546;DHT22;15749;49.606;8.738;2023-09-08T12:07:00;29.60;99.90
28546;DHT22;15749;49.606;8.738;2023-09-08T12:09:30;29.60;99.90
28546;DHT22;15749;49.606;8.738;2023-09-08T12:12:02;29.60;99.90
28546;DHT22;15749;49.606;8.738;2023-09-08T12:14:40;29.60;99.90
28546;DHT22;15749;49.606;8.738;2023-09-08T12:17:13;29.60;99.90
28546;DHT22;15749;49.606;8.738;2023-09-08T12:19:45;29.60;99.90
28546;DHT22;15749;49.606;8.738;2023-09-08T12:22:14;29.60;99.90
28546;DHT22;15749;49.606;8.738;2023-09-08T12:24:49;29.60;99.90
28546;DHT22;15749;49.606;8.738;2023-09-08T12:27:20;29.60;99.90
28546;DHT22;15749;49.606;8.738;2023-09-08T12:29:54;29.60;99.90
28546;DHT22;15749;49.606;8.738;2023-09-08T12:32:23;29.70;99.90
28546;DHT22;15749;49.606;8.738;2023-09-08T12:34:53;29.70;99.90
28546;DHT22;15749;49.606;8.738;2023-09-08T12:37:23;29.70;99.90
28546;DHT22;15749;49.606;8.738;2023-09-08T12:39:54;29.70;99.90
28546;DHT22;15749;49.606;8.738;2023-09-08T12:42:24;29.70;99.90
28546;DHT22;15749;49.606;8.738;2023-09-08T12:44:59;29.70;99.90
28546;DHT22;15749;49.606;8.738;2023-09-08T12:47:29;29.70;99.90
28546;DHT22;15749;49.606;8.738;2023-09-08T12:49:58;29.80;99.90
28546;DHT22;15749;49.606;8.738;2023-09-08T12:52:28;29.80;99.90
28546;DHT22;15749;49.606;8.738;2023-09-08T12:55:04;29.70;99.90
28546;DHT22;15749;49.606;8.738;2023-09-08T12:57:34;29.80;99.90
28546;DHT22;15749;49.606;8.738;2023-09-08T13:00:05;29.80;99.90
28546;DHT22;15749;49.606;8.738;2023-09-08T13:02:35;29.80;99.90
28546;DHT22;15749;49.606;8.738;2023-09-08T13:05:05;29.80;99.90
28546;DHT22;15749;49.606;8.738;2023-09-08T13:07:36;29.80;99.90
28546;DHT22;15749;49.606;8.738;2023-09-08T13:10:09;29.80;99.90
28546;DHT22;15749;49.606;8.738;2023-09-08T13:12:40;29.80;99.90
28546;DHT22;15749;49.606;8.738;2023-09-08T13:15:10;29.80;99.90
28546;DHT22;15749;49.606;8.738;2023-09-08T13:17:39;29.80;99.90
28546;DHT22;15749;49.606;8.738;2023-09-08T13:20:10;29.80;99.90
28546;DHT22;15749;49.606;8.738;2023-09-08T13:22:40;29.80;99.90
28546;DHT22;15749;49.606;8.738;2023-09-08T13:25:11;29.80;99.90
28546;DHT22;15749;49.606;8.738;2023-09-08T13:27:41;29.80;99.90
28546;DHT22;15749;49.606;8.738;2023-09-08T13:30:11;29.80;99.90
28546;DHT22;15749;49.606;8.738;2023-09-08T13:32:41;29.80;99.90
28546;DHT22;15749;49.606;8.738;2023-09-08T13:35:10;29.80;99.90
28546;DHT22;15749;49.606;8.738;2023-09-08T13:37:40;29.80;99.90
28546;DHT22;15749;49.606;8.738;2023-09-08T13:40:11;29.80;99.90
28546;DHT22;15749;49.606;8.738;2023-09-08T13:42:42;29.80;99.90
28546;DHT22;15749;49.606;8.738;2023-09-08T13:45:12;29.80;99.90
28546;DHT22;15749;49.606;8.738;2023-09-08T13:47:42;29.80;99.90
28546;DHT22;15749;49.606;8.738;2023-09-08T13:50:12;29.80;99.90
28546;DHT22;15749;49.606;8.738;2023-09-08T13:52:44;29.80;99.90
28546;DHT22;15749;49.606;8.738;2023-09-08T13:55:19;29.80;99.90
28546;DHT22;15749;49.606;8.738;2023-09-08T13:58:05;29.80;99.90
28546;DHT22;15749;49.606;8.738;2023-09-08T14:00:37;29.80;99.90
28546;DHT22;15749;49.606;8.738;2023-09-08T14:06:21;29.80;99.90
28546;DHT22;15749;49.606;8.738;2023-09-08T14:08:57;29.80;99.90
28546;DHT22;15749;49.606;8.738;2023-09-08T14:11:30;29.80;99.90
28546;DHT22;15749;49.606;8.738;2023-09-08T14:14:01;29.80;99.90
28546;DHT22;15749;49.606;8.738;2023-09-08T14:16:31;29.80;99.90
28546;DHT22;15749;49.606;8.738;2023-09-08T14:19:00;29.80;99.90
28546;DHT22;15749;49.606;8.738;2023-09-08T14:21:29;29.80;99.90
28546;DHT22;15749;49.606;8.738;2023-09-08T14:23:59;29.80;99.90
28546;DHT22;15749;49.606;8.738;2023-09-08T14:26:29;29.80;99.90
28546;DHT22;15749;49.606;8.738;2023-09-08T14:28:58;29.80;99.90
28546;DHT22;15749;49.606;8.738;2023-09-08T14:31:27;29.80;99.90
28546;DHT22;15749;49.606;8.738;2023-09-08T14:33:57;29.80;99.90
28546;DHT22;15749;49.606;8.738;2023-09-08T14:36:26;29.80;99.90
28546;DHT22;15749;49.606;8.738;2023-09-08T14:38:55;29.80;99.90
28546;DHT22;15749;49.606;8.738;2023-09-08T14:41:24;29.80;99.90
28546;DHT22;15749;49.606;8.738;2023-09-08T14:43:55;29.70;99.90
28546;DHT22;15749;49.606;8.738;2023-09-08T14:46:24;29.70;99.90
28546;DHT22;15749;49.606;8.738;2023-09-08T14:48:52;29.70;99.90
28546;DHT22;15749;49.606;8.738;2023-09-08T14:51:22;29.70;99.90
28546;DHT22;15749;49.606;8.738;2023-09-08T14:53:51;29.70;99.90
28546;DHT22;15749;49.606;8.738;2023-09-08T14:56:20;29.70;99.90
28546;DHT22;15749;49.606;8.738;2023-09-08T14:58:49;29.70;99.90
28546;DHT22;15749;49.606;8.738;2023-09-08T15:01:19;29.70;99.90
28546;DHT22;15749;49.606;8.738;2023-09-08T15:03:48;29.70;99.90
28546;DHT22;15749;49.606;8.738;2023-09-08T15:06:17;29.70;99.90
28546;DHT22;15749;49.606;8.738;2023-09-08T15:08:48;29.70;99.90
28546;DHT22;15749;49.606;8.738;2023-09-08T15:11:17;29.70;99.90
28546;DHT22;15749;49.606;8.738;2023-09-08T15:13:46;29.70;99.90
28546;DHT22;15749;49.606;8.738;2023-09-08T15:16:15;29.70;99.90
28546;DHT22;15749;49.606;8.738;2023-09-08T15:18:50;29.70;99.90
28546;DHT22;15749;49.606;8.738;2023-09-08T15:21:18;29.70;99.90
28546;DHT22;15749;49.606;8.738;2023-09-08T15:23:53;29.60;99.90
28546;DHT22;15749;49.606;8.738;2023-09-08T15:26:21;29.60;99.90
28546;DHT22;15749;49.606;8.738;2023-09-08T15:28:51;29.60;99.90
28546;DHT22;15749;49.606;8.738;2023-09-08T15:31:20;29.60;99.90
28546;DHT22;15749;49.606;8.738;2023-09-08T15:33:50;29.60;99.90
28546;DHT22;15749;49.606;8.738;2023-09-08T15:36:19;29.60;99.90
28546;DHT22;15749;49.606;8.738;2023-09-08T15:38:48;29.60;99.90
28546;DHT22;15749;49.606;8.738;2023-09-08T15:41:18;29.60;99.90
28546;DHT22;15749;49.606;8.738;2023-09-08T15:43:49;29.60;99.90
28546;DHT22;15749;49.606;8.738;2023-09-08T15:46:19;29.60;99.90
28546;DHT22;15749;49.606;8.738;2023-09-08T15:48:49;29.60;99.90
28546;DHT22;15749;49.606;8.738;2023-09-08T15:51:18;29.60;99.90
28546;DHT22;15749;49.606;8.738;2023-09-08T15:53:47;29.60;99.90
28546;DHT22;15749;49.606;8.738;2023-09-08T15:56:16;29.60;99.90
28546;DHT22;15749;49.606;8.738;2023-09-08T15:58:44;29.60;99.90
28546;DHT22;15749;49.606;8.738;2023-09-08T16:01:13;29.60;99.90
28546;DHT22;15749;49.606;8.738;2023-09-08T16:03:43;29.60;99.90
28546;DHT22;15749;49.606;8.738;2023-09-08T16:06:15;29.60;99.90
28546;DHT22;15749;49.606;8.738;2023-09-08T16:08:46;29.60;99.90
28546;DHT22;15749;49.606;8.738;2023-09-08T16:11:16;29.60;99.90
28546;DHT22;15749;49.606;8.738;2023-09-08T16:13:45;29.60;99.90
28546;DHT22;15749;49.606;8.738;2023-09-08T16:16:14;29.60;99.90
28546;DHT22;15749;49.606;8.738;2023-09-08T16:18:43;29.60;99.90
28546;DHT22;15749;49.606;8.738;2023-09-08T16:21:12;29.60;99.90
28546;DHT22;15749;49.606;8.738;2023-09-08T16:23:45;29.60;99.90
28546;DHT22;15749;49.606;8.738;2023-09-08T16:26:14;29.60;99.90
28546;DHT22;15749;49.606;8.738;2023-09-08T16:28:43;29.60;99.90
28546;DHT22;15749;49.606;8.738;2023-09-08T16:31:12;29.60;99.90
28546;DHT22;15749;49.606;8.738;2023-09-08T16:33:41;29.60;99.90
28546;DHT22;15749;49.606;8.738;2023-09-08T16:36:09;29.60;99.90
28546;DHT22;15749;49.606;8.738;2023-09-08T16:38:38;29.50;99.90
28546;DHT22;15749;49.606;8.738;2023-09-08T16:41:08;29.50;99.90
28546;DHT22;15749;49.606;8.738;2023-09-08T16:43:39;29.60;99.90
28546;DHT22;15749;49.606;8.738;2023-09-08T16:46:08;29.50;99.90
28546;DHT22;15749;49.606;8.738;2023-09-08T16:48:37;29.50;99.90
28546;DHT22;15749;49.606;8.738;2023-09-08T16:51:05;29.50;99.90
28546;DHT22;15749;49.606;8.738;2023-09-08T16:53:34;29.60;99.90
28546;DHT22;15749;49.606;8.738;2023-09-08T16:56:03;29.50;99.90
28546;DHT22;15749;49.606;8.738;2023-09-08T16:58:37;29.50;99.90
28546;DHT22;15749;49.606;8.738;2023-09-08T17:01:06;29.50;99.90
28546;DHT22;15749;49.606;8.738;2023-09-08T17:03:35;29.50;99.90
28546;DHT22;15749;49.606;8.738;2023-09-08T17:06:05;29.50;99.90
28546;DHT22;15749;49.606;8.738;2023-09-08T17:08:34;29.50;99.90
28546;DHT22;15749;49.606;8.738;2023-09-08T17:11:03;29.50;99.90
28546;DHT22;15749;49.606;8.738;2023-09-08T17:13:32;29.50;99.90
28546;DHT22;15749;49.606;8.738;2023-09-08T17:16:06;29.50;99.90
28546;DHT22;15749;49.606;8.738;2023-09-08T17:18:35;29.50;99.90
28546;DHT22;15749;49.606;8.738;2023-09-08T17:21:04;29.50;99.90
28546;DHT22;15749;49.606;8.738;2023-09-08T17:23:33;29.50;99.90
28546;DHT22;15749;49.606;8.738;2023-09-08T17:26:02;29.50;99.90
28546;DHT22;15749;49.606;8.738;2023-09-08T17:28:31;29.50;99.90
28546;DHT22;15749;49.606;8.738;2023-09-08T17:31:02;29.50;99.90
28546;DHT22;15749;49.606;8.738;2023-09-08T17:33:34;29.50;99.90
28546;DHT22;15749;49.606;8.738;2023-09-08T17:36:04;29.50;99.90
28546;DHT22;15749;49.606;8.738;2023-09-08T17:38:35;29.40;99.90
28546;DHT22;15749;49.606;8.738;2023-09-08T17:41:07;29.40;99.90
28546;DHT22;15749;49.606;8.738;2023-09-08T17:43:37;29.40;99.90
28546;DHT22;15749;49.606;8.738;2023-09-08T17:46:09;29.40;99.90
28546;DHT22;15749;49.606;8.738;2023-09-08T17:48:40;29.30;99.90
28546;DHT22;15749;49.606;8.738;2023-09-08T17:51:08;29.40;99.90
28546;DHT22;15749;49.606;8.738;2023-09-08T17:53:37;29.40;99.90
28546;DHT22;15749;49.606;8.738;2023-09-08T17:56:07;29.30;99.90
28546;DHT22;15749;49.606;8.738;2023-09-08T17:58:36;29.30;99.90
28546;DHT22;15749;49.606;8.738;2023-09-08T18:01:05;29.30;99.90
28546;DHT22;15749;49.606;8.738;2023-09-08T18:03:34;29.30;99.90
28546;DHT22;15749;49.606;8.738;2023-09-08T18:06:07;29.30;99.90
28546;DHT22;15749;49.606;8.738;2023-09-08T18:08:37;29.20;99.90
28546;DHT22;15749;49.606;8.738;2023-09-08T18:11:06;29.20;99.90
28546;DHT22;15749;49.606;8.738;2023-09-08T18:13:39;29.20;99.90